Etusivu
METAR-TAF:

METAR-TAF

Lentoasemat :

Diourbel, Senegal

Leveyspiiri: 14-39N, Pituuspiiri: 016-14W, korkeus merenpinnasta: 7 m

Tämänhetkinen sää

Tämä raportti tehtiin 2 tuntia ja 2 minuuttia sitten, kello 10.00 UTC
tyyntä
Lämpötila 30°C
Kosteus 25%
Ilmanpaine 1014 hPa
Näkyvyys 10 km tai enemmän
ei pilviä alle 1500 m:ssä eikä cumulonimbus-pilviä

METAR: GOOD 171000Z 00000KT CAVOK 30/08 Q1014

Aika: 12:02 (12:02 UTC)


TAF: puuttuu

Säähavainnot ja -ennusteet yli 4000 lentoasemalta (METAR- ja TAF-raportit).

Käytössä olevat sääasemat on merkitty karttaan keltaisilla ja punaisilla pisteillä.

Aseta hiiri pisteen päälle nähdäksesi sääaseman nimen.

Klikkaa sitten nähdäksesi säähavainnot ja -ennusteet.

Kartan vaihtaminen: klikkaa mustalla rastilla varustettuja vihreitä pisteitä, niin voit zoomata sisään; viivalla varustettua vihreää pistettä, niin voit zoomata ulos tai vihreitä nuolia, niin pääset viereisille kartoille.


METAR-TAF: